LND Airport (Hunt Field) Information

FAA: LND - ICAO: KLND

LND Airport Location

State Wyoming
County Fremont
City Lander
LND Airport is 1 mile south of Lander, WY.
Latitude 42-48-55.3850N
Longitude 108-43-42.8270W
Elevation 5,588ft

KLND Airport METARs

METAR KLND 182353Z AUTO 19011KT 10SM CLR 13/M02 A2977 RMK AO2 SLP055 T01331017 10178 20133 55002
Altimeter 29.77"
Temperature 13.3°C (55.9°F)
Wind 190° at 11KT
Clouds Skies are clear.
Visibility 10.0mi
Time observed: 2021-10-18T23:53:00Z

LND Airport Details

Status Operational
Activation November 1937
Ownership Public
Usage Public
Chart CHEYENNE
ATC on-site No
Beacon schedule sunset-sunrise
Beacon color clear green

LND Airport Contacts

Owner CITY OF LANDER
Owner address 240 LINCOLN ST, LANDER, WY 82520
Owner phone 307-332-2870
Manager MR, & MRS. ROBERT HARSHBURGER
Manager address 1162 LYNCH RD, NEWCASTLE, WY 82701
Manager phone 307-746-2815

LND Airport (Hunt Field) Radio Frequencies

LND (Airport) Radio Frequencies

UNICOM 122.8
Common traffic advisory frequency (CTAF) 122.8